ROMMA est une association bénévole à but non lucratif. Votre soutien est indispensable : ADHERER à ROMMA ou FAIRE un DON

Granges-lès-Beaumont - (26, Drôme)

Drôme des Collines (155 m)   Longitude: 04°58'E   Latitude: 45°03'N Station partenaire n°123
 

Détail journalier du     <<     >>

Température Precipitation Humidité Pression Vent Dir Rafale Dir. rafale Ensol.
Heure (°C) (mm) (%) (hPa) (km/h) (km/h) (min)
01:00 12.4090101303NNO0
02:00 12.209010131---8NNO0
03:00 12.109010133NNO10NE0
04:00 12.109010135NNE15NE0
05:00 12.108910139NNE19ENE0
06:00 11.908810138NNE15NE0
07:00 12.208810139NNE18NE0
08:00 12.508810138NNE16NE0
09:00 13.708710149N18NNE0
10:00 15.1080101414N27NNE0
11:00 17.0075101415NNO34NNO30
12:00 17.7070101417NNO32N40
13:00 20.0063101415N31NO30
14:00 20.9061101420N39NNO60
15:00 21.5058101320N39N60
16:00 21.9056101322NNO40N60
17:00 21.3056101321NO39NO60
18:00 20.6054101319N44NNO60
19:00 20.1054101321N47NNO50
20:00 19.2056101419NNO42NO40
21:00 17.2064101415N31N40
22:00 15.7071101510N19NE0
23:00 14.807510159NNO21NNO0
minuit 14.1076101511N19NNO0

Graphique du 21-05-2019

 

Serveur OMMA